sensor_id;sensor_type;location;lat;lon;timestamp;pressure;altitude;pressure_sealevel;temperature;humidity
77027;BME280;65956;52.986;17.490;2023-02-28T00:01:34;101891.64;;;-2.94;74.83
77027;BME280;65956;52.986;17.490;2023-02-28T00:04:01;101892.63;;;-2.93;75.00
77027;BME280;65956;52.986;17.490;2023-02-28T00:06:29;101892.65;;;-2.95;75.04
77027;BME280;65956;52.986;17.490;2023-02-28T00:08:56;101893.52;;;-2.96;74.94
77027;BME280;65956;52.986;17.490;2023-02-28T00:11:24;101895.79;;;-2.97;74.99
77027;BME280;65956;52.986;17.490;2023-02-28T00:13:51;101892.30;;;-2.99;75.31
77027;BME280;65956;52.986;17.490;2023-02-28T00:16:21;101892.11;;;-3.01;75.13
77027;BME280;65956;52.986;17.490;2023-02-28T00:18:49;101894.88;;;-3.04;75.17
77027;BME280;65956;52.986;17.490;2023-02-28T00:21:18;101893.71;;;-3.06;75.28
77027;BME280;65956;52.986;17.490;2023-02-28T00:23:46;101896.23;;;-3.05;75.64
77027;BME280;65956;52.986;17.490;2023-02-28T00:26:14;101896.75;;;-3.03;75.68
77027;BME280;65956;52.986;17.490;2023-02-28T00:28:43;101893.23;;;-3.03;75.31
77027;BME280;65956;52.986;17.490;2023-02-28T00:31:10;101895.55;;;-3.00;75.58
77027;BME280;65956;52.986;17.490;2023-02-28T00:33:37;101896.66;;;-2.99;75.32
77027;BME280;65956;52.986;17.490;2023-02-28T00:36:10;101893.30;;;-3.01;75.23
77027;BME280;65956;52.986;17.490;2023-02-28T00:38:39;101894.06;;;-3.05;75.36
77027;BME280;65956;52.986;17.490;2023-02-28T00:41:07;101891.91;;;-3.08;75.49
77027;BME280;65956;52.986;17.490;2023-02-28T00:43:37;101894.61;;;-3.12;75.70
77027;BME280;65956;52.986;17.490;2023-02-28T00:46:05;101889.27;;;-3.17;75.58
77027;BME280;65956;52.986;17.490;2023-02-28T00:48:32;101890.46;;;-3.24;76.04
77027;BME280;65956;52.986;17.490;2023-02-28T00:51:00;101889.15;;;-3.29;76.07
77027;BME280;65956;52.986;17.490;2023-02-28T00:53:29;101893.02;;;-3.34;76.00
77027;BME280;65956;52.986;17.490;2023-02-28T00:55:58;101890.28;;;-3.38;76.01
77027;BME280;65956;52.986;17.490;2023-02-28T00:58:28;101895.31;;;-3.42;75.87
77027;BME280;65956;52.986;17.490;2023-02-28T01:00:55;101894.58;;;-3.46;75.85
77027;BME280;65956;52.986;17.490;2023-02-28T01:03:23;101891.33;;;-3.58;76.11
77027;BME280;65956;52.986;17.490;2023-02-28T01:05:51;101893.15;;;-3.68;76.45
77027;BME280;65956;52.986;17.490;2023-02-28T01:08:20;101891.41;;;-3.77;76.51
77027;BME280;65956;52.986;17.490;2023-02-28T01:10:47;101894.61;;;-3.85;76.76
77027;BME280;65956;52.986;17.490;2023-02-28T01:13:16;101893.36;;;-3.92;76.73
77027;BME280;65956;52.986;17.490;2023-02-28T01:15:49;101893.43;;;-3.96;77.08
77027;BME280;65956;52.986;17.490;2023-02-28T01:18:18;101888.02;;;-3.97;77.20
77027;BME280;65956;52.986;17.490;2023-02-28T01:20:48;101884.54;;;-3.99;77.16
77027;BME280;65956;52.986;17.490;2023-02-28T01:23:18;101883.21;;;-3.98;77.25
77027;BME280;65956;52.986;17.490;2023-02-28T01:25:47;101879.84;;;-3.95;77.44
77027;BME280;65956;52.986;17.490;2023-02-28T01:28:15;101891.68;;;-3.94;77.35
77027;BME280;65956;52.986;17.490;2023-02-28T01:30:47;101885.66;;;-3.95;77.21
77027;BME280;65956;52.986;17.490;2023-02-28T01:33:15;101886.02;;;-3.94;77.27
77027;BME280;65956;52.986;17.490;2023-02-28T01:35:42;101885.94;;;-3.93;77.58
77027;BME280;65956;52.986;17.490;2023-02-28T01:38:11;101886.48;;;-3.93;77.25
77027;BME280;65956;52.986;17.490;2023-02-28T01:40:38;101880.80;;;-3.94;77.15
77027;BME280;65956;52.986;17.490;2023-02-28T01:43:28;101880.96;;;-3.96;77.73
77027;BME280;65956;52.986;17.490;2023-02-28T01:45:58;101881.98;;;-3.97;77.82
77027;BME280;65956;52.986;17.490;2023-02-28T01:48:38;101881.95;;;-3.91;77.84
77027;BME280;65956;52.986;17.490;2023-02-28T01:51:17;101877.14;;;-3.82;78.38
77027;BME280;65956;52.986;17.490;2023-02-28T01:53:49;101874.04;;;-3.70;78.64
77027;BME280;65956;52.986;17.490;2023-02-28T01:56:25;101876.97;;;-3.54;78.68
77027;BME280;65956;52.986;17.490;2023-02-28T01:58:54;101879.11;;;-3.46;78.81
77027;BME280;65956;52.986;17.490;2023-02-28T02:01:26;101877.89;;;-3.39;78.62
77027;BME280;65956;52.986;17.490;2023-02-28T02:03:57;101879.20;;;-3.33;78.60
77027;BME280;65956;52.986;17.490;2023-02-28T02:06:40;101875.20;;;-3.30;78.32
77027;BME280;65956;52.986;17.490;2023-02-28T02:09:11;101873.39;;;-3.24;78.39
77027;BME280;65956;52.986;17.490;2023-02-28T02:11:40;101868.58;;;-3.23;77.93
77027;BME280;65956;52.986;17.490;2023-02-28T02:25:18;101873.14;;;-3.50;77.33
77027;BME280;65956;52.986;17.490;2023-02-28T02:36:14;101870.19;;;-4.00;77.81
77027;BME280;65956;52.986;17.490;2023-02-28T02:38:53;101873.44;;;-4.13;77.86
77027;BME280;65956;52.986;17.490;2023-02-28T02:41:46;101872.19;;;-4.22;77.62
77027;BME280;65956;52.986;17.490;2023-02-28T02:44:34;101874.13;;;-4.28;77.93
77027;BME280;65956;52.986;17.490;2023-02-28T02:47:12;101877.26;;;-4.34;78.41
77027;BME280;65956;52.986;17.490;2023-02-28T02:49:55;101878.63;;;-4.44;78.38
77027;BME280;65956;52.986;17.490;2023-02-28T02:52:30;101879.73;;;-4.52;78.33
77027;BME280;65956;52.986;17.490;2023-02-28T02:55:00;101878.30;;;-4.57;78.59
77027;BME280;65956;52.986;17.490;2023-02-28T02:57:36;101882.45;;;-4.57;79.04
77027;BME280;65956;52.986;17.490;2023-02-28T03:00:06;101880.29;;;-4.45;79.76
77027;BME280;65956;52.986;17.490;2023-02-28T03:02:37;101884.66;;;-4.24;80.76
77027;BME280;65956;52.986;17.490;2023-02-28T03:05:23;101880.84;;;-4.01;81.39
77027;BME280;65956;52.986;17.490;2023-02-28T03:07:52;101881.64;;;-3.83;81.27
77027;BME280;65956;52.986;17.490;2023-02-28T03:10:48;101883.23;;;-3.75;80.64
77027;BME280;65956;52.986;17.490;2023-02-28T03:19:30;101885.64;;;-3.56;79.94
77027;BME280;65956;52.986;17.490;2023-02-28T03:25:28;101885.14;;;-3.57;80.22
77027;BME280;65956;52.986;17.490;2023-02-28T03:28:15;101884.39;;;-3.56;80.26
77027;BME280;65956;52.986;17.490;2023-02-28T03:33:44;101884.60;;;-3.54;79.96
77027;BME280;65956;52.986;17.490;2023-02-28T03:36:16;101885.17;;;-3.58;79.50
77027;BME280;65956;52.986;17.490;2023-02-28T03:39:01;101882.19;;;-3.70;79.03
77027;BME280;65956;52.986;17.490;2023-02-28T03:41:40;101886.56;;;-3.82;78.95
77027;BME280;65956;52.986;17.490;2023-02-28T03:44:17;101885.88;;;-3.86;79.07
77027;BME280;65956;52.986;17.490;2023-02-28T03:46:51;101888.70;;;-3.91;78.72
77027;BME280;65956;52.986;17.490;2023-02-28T03:49:24;101888.48;;;-3.96;79.13
77027;BME280;65956;52.986;17.490;2023-02-28T03:51:56;101895.64;;;-3.95;79.51
77027;BME280;65956;52.986;17.490;2023-02-28T03:54:31;101893.28;;;-3.91;79.66
77027;BME280;65956;52.986;17.490;2023-02-28T03:57:05;101899.34;;;-3.78;80.35
77027;BME280;65956;52.986;17.490;2023-02-28T03:59:42;101894.42;;;-3.69;80.49
77027;BME280;65956;52.986;17.490;2023-02-28T04:02:11;101895.66;;;-3.64;80.57
77027;BME280;65956;52.986;17.490;2023-02-28T04:04:39;101895.54;;;-3.63;80.09
77027;BME280;65956;52.986;17.490;2023-02-28T04:07:12;101897.55;;;-3.63;80.08
77027;BME280;65956;52.986;17.490;2023-02-28T04:09:39;101898.86;;;-3.66;79.52
77027;BME280;65956;52.986;17.490;2023-02-28T04:12:07;101899.40;;;-3.70;79.34
77027;BME280;65956;52.986;17.490;2023-02-28T04:14:35;101902.53;;;-3.74;79.34
77027;BME280;65956;52.986;17.490;2023-02-28T04:17:02;101901.42;;;-3.77;79.56
77027;BME280;65956;52.986;17.490;2023-02-28T04:19:29;101901.33;;;-3.79;79.92
77027;BME280;65956;52.986;17.490;2023-02-28T04:21:57;101901.05;;;-3.82;79.82
77027;BME280;65956;52.986;17.490;2023-02-28T04:24:26;101901.11;;;-3.85;80.17
77027;BME280;65956;52.986;17.490;2023-02-28T04:26:57;101908.11;;;-3.85;80.05
77027;BME280;65956;52.986;17.490;2023-02-28T04:29:29;101906.97;;;-3.85;80.10
77027;BME280;65956;52.986;17.490;2023-02-28T04:31:58;101909.85;;;-3.83;80.11
77027;BME280;65956;52.986;17.490;2023-02-28T04:34:28;101909.19;;;-3.83;79.80
77027;BME280;65956;52.986;17.490;2023-02-28T04:36:56;101910.13;;;-3.85;79.96
77027;BME280;65956;52.986;17.490;2023-02-28T04:39:29;101914.23;;;-3.86;80.27
77027;BME280;65956;52.986;17.490;2023-02-28T04:42:00;101918.73;;;-3.88;80.13
77027;BME280;65956;52.986;17.490;2023-02-28T04:44:35;101918.52;;;-3.88;80.35
77027;BME280;65956;52.986;17.490;2023-02-28T04:47:03;101920.80;;;-3.87;80.71
77027;BME280;65956;52.986;17.490;2023-02-28T04:49:30;101920.05;;;-3.86;80.65
77027;BME280;65956;52.986;17.490;2023-02-28T04:51:57;101921.97;;;-3.84;80.84
77027;BME280;65956;52.986;17.490;2023-02-28T04:54:25;101923.75;;;-3.84;80.49
77027;BME280;65956;52.986;17.490;2023-02-28T04:56:52;101928.31;;;-3.82;81.00
77027;BME280;65956;52.986;17.490;2023-02-28T04:59:20;101925.17;;;-3.82;80.79
77027;BME280;65956;52.986;17.490;2023-02-28T05:01:48;101924.08;;;-3.82;80.40
77027;BME280;65956;52.986;17.490;2023-02-28T05:04:17;101925.64;;;-3.83;80.56
77027;BME280;65956;52.986;17.490;2023-02-28T05:06:44;101928.46;;;-3.83;80.46
77027;BME280;65956;52.986;17.490;2023-02-28T05:09:12;101932.77;;;-3.86;80.20
77027;BME280;65956;52.986;17.490;2023-02-28T05:11:40;101930.73;;;-3.92;80.10
77027;BME280;65956;52.986;17.490;2023-02-28T05:14:13;101924.68;;;-3.98;80.03
77027;BME280;65956;52.986;17.490;2023-02-28T05:16:41;101931.85;;;-4.06;80.27
77027;BME280;65956;52.986;17.490;2023-02-28T05:19:09;101929.96;;;-4.12;79.93
77027;BME280;65956;52.986;17.490;2023-02-28T05:21:48;101934.33;;;-4.16;80.02
77027;BME280;65956;52.986;17.490;2023-02-28T05:24:16;101934.50;;;-4.18;80.21
77027;BME280;65956;52.986;17.490;2023-02-28T05:26:52;101934.35;;;-4.17;80.61
77027;BME280;65956;52.986;17.490;2023-02-28T05:29:20;101936.98;;;-4.17;80.75
77027;BME280;65956;52.986;17.490;2023-02-28T05:31:48;101935.73;;;-4.19;80.72
77027;BME280;65956;52.986;17.490;2023-02-28T05:34:15;101933.28;;;-4.23;80.84
77027;BME280;65956;52.986;17.490;2023-02-28T05:36:43;101930.88;;;-4.28;80.66
77027;BME280;65956;52.986;17.490;2023-02-28T05:39:10;101929.79;;;-4.32;80.51
77027;BME280;65956;52.986;17.490;2023-02-28T05:41:41;101932.00;;;-4.36;80.63
77027;BME280;65956;52.986;17.490;2023-02-28T05:44:10;101932.89;;;-4.37;80.60
77027;BME280;65956;52.986;17.490;2023-02-28T05:46:37;101929.80;;;-4.35;80.84
77027;BME280;65956;52.986;17.490;2023-02-28T05:49:05;101935.45;;;-4.32;81.05
77027;BME280;65956;52.986;17.490;2023-02-28T05:51:33;101933.64;;;-4.31;81.08
77027;BME280;65956;52.986;17.490;2023-02-28T05:54:01;101937.52;;;-4.28;80.94
77027;BME280;65956;52.986;17.490;2023-02-28T05:56:29;101938.48;;;-4.26;80.97
77027;BME280;65956;52.986;17.490;2023-02-28T05:58:57;101940.06;;;-4.26;80.85
77027;BME280;65956;52.986;17.490;2023-02-28T06:01:35;101942.68;;;-4.24;81.03
77027;BME280;65956;52.986;17.490;2023-02-28T06:04:06;101941.95;;;-4.21;80.88
77027;BME280;65956;52.986;17.490;2023-02-28T06:06:38;101946.65;;;-4.16;81.00
77027;BME280;65956;52.986;17.490;2023-02-28T06:09:06;101952.09;;;-4.11;80.80
77027;BME280;65956;52.986;17.490;2023-02-28T06:11:34;101949.13;;;-4.07;81.09
77027;BME280;65956;52.986;17.490;2023-02-28T06:14:02;101951.87;;;-4.02;81.25
77027;BME280;65956;52.986;17.490;2023-02-28T06:16:32;101958.16;;;-3.94;81.06
77027;BME280;65956;52.986;17.490;2023-02-28T06:19:01;101956.61;;;-3.82;80.78
77027;BME280;65956;52.986;17.490;2023-02-28T06:21:29;101954.70;;;-3.68;80.36
77027;BME280;65956;52.986;17.490;2023-02-28T06:23:57;101956.94;;;-3.53;80.60
77027;BME280;65956;52.986;17.490;2023-02-28T06:26:25;101958.75;;;-3.40;80.34
77027;BME280;65956;52.986;17.490;2023-02-28T06:28:53;101954.27;;;-3.30;80.35
77027;BME280;65956;52.986;17.490;2023-02-28T06:31:21;101955.53;;;-3.22;79.76
77027;BME280;65956;52.986;17.490;2023-02-28T06:33:48;101958.97;;;-3.15;79.68
77027;BME280;65956;52.986;17.490;2023-02-28T06:36:17;101957.39;;;-3.10;79.63
77027;BME280;65956;52.986;17.490;2023-02-28T06:38:46;101954.20;;;-3.10;79.61
77027;BME280;65956;52.986;17.490;2023-02-28T06:41:18;101955.86;;;-3.09;79.62
77027;BME280;65956;52.986;17.490;2023-02-28T06:43:45;101954.52;;;-3.05;79.59
77027;BME280;65956;52.986;17.490;2023-02-28T06:46:14;101956.11;;;-3.02;79.40
77027;BME280;65956;52.986;17.490;2023-02-28T06:48:45;101953.20;;;-2.95;79.70
77027;BME280;65956;52.986;17.490;2023-02-28T06:51:16;101944.02;;;-2.85;79.39
77027;BME280;65956;52.986;17.490;2023-02-28T06:53:44;101954.01;;;-2.76;79.66
77027;BME280;65956;52.986;17.490;2023-02-28T06:56:14;101961.83;;;-2.69;79.27
77027;BME280;65956;52.986;17.490;2023-02-28T06:58:46;101963.52;;;-2.64;79.08
77027;BME280;65956;52.986;17.490;2023-02-28T07:01:14;101964.55;;;-2.58;79.17
77027;BME280;65956;52.986;17.490;2023-02-28T07:03:42;101966.09;;;-2.52;78.64
77027;BME280;65956;52.986;17.490;2023-02-28T07:06:10;101972.45;;;-2.47;78.68
77027;BME280;65956;52.986;17.490;2023-02-28T07:08:38;101974.80;;;-2.43;78.58
77027;BME280;65956;52.986;17.490;2023-02-28T07:11:07;101975.56;;;-2.41;78.40
77027;BME280;65956;52.986;17.490;2023-02-28T07:13:34;101975.05;;;-2.35;78.38
77027;BME280;65956;52.986;17.490;2023-02-28T07:16:07;101978.67;;;-2.28;78.37
77027;BME280;65956;52.986;17.490;2023-02-28T07:18:37;101978.35;;;-2.18;78.39
77027;BME280;65956;52.986;17.490;2023-02-28T07:21:07;101985.38;;;-2.10;78.72
77027;BME280;65956;52.986;17.490;2023-02-28T07:23:35;101983.56;;;-2.01;78.47
77027;BME280;65956;52.986;17.490;2023-02-28T07:26:06;101984.20;;;-1.92;78.41
77027;BME280;65956;52.986;17.490;2023-02-28T07:28:35;101989.60;;;-1.83;78.46
77027;BME280;65956;52.986;17.490;2023-02-28T07:31:04;101987.54;;;-1.74;78.48
77027;BME280;65956;52.986;17.490;2023-02-28T07:33:32;101988.77;;;-1.66;78.23
77027;BME280;65956;52.986;17.490;2023-02-28T07:36:06;101989.02;;;-1.58;78.30
77027;BME280;65956;52.986;17.490;2023-02-28T07:38:36;101986.78;;;-1.46;78.60
77027;BME280;65956;52.986;17.490;2023-02-28T07:41:08;101984.42;;;-1.27;78.27
77027;BME280;65956;52.986;17.490;2023-02-28T07:43:35;101986.73;;;-1.13;78.04
77027;BME280;65956;52.986;17.490;2023-02-28T07:46:11;101982.73;;;-1.05;77.65
77027;BME280;65956;52.986;17.490;2023-02-28T07:48:41;101980.63;;;-0.98;77.51
77027;BME280;65956;52.986;17.490;2023-02-28T07:51:09;101976.82;;;-0.93;77.09
77027;BME280;65956;52.986;17.490;2023-02-28T07:53:37;101975.30;;;-0.87;77.21
77027;BME280;65956;52.986;17.490;2023-02-28T07:56:07;101971.34;;;-0.83;77.05
77027;BME280;65956;52.986;17.490;2023-02-28T07:58:34;101972.60;;;-0.79;76.66
77027;BME280;65956;52.986;17.490;2023-02-28T08:01:09;101972.60;;;-0.75;76.93
77027;BME280;65956;52.986;17.490;2023-02-28T08:03:38;101968.78;;;-0.68;76.60
77027;BME280;65956;52.986;17.490;2023-02-28T08:06:07;101960.05;;;-0.61;76.59
77027;BME280;65956;52.986;17.490;2023-02-28T08:08:37;101963.92;;;-0.52;76.55
77027;BME280;65956;52.986;17.490;2023-02-28T08:11:04;101965.20;;;-0.44;76.35
77027;BME280;65956;52.986;17.490;2023-02-28T08:13:32;101968.82;;;-0.34;76.60
77027;BME280;65956;52.986;17.490;2023-02-28T08:16:01;101968.94;;;-0.27;76.63
77027;BME280;65956;52.986;17.490;2023-02-28T08:18:29;101966.59;;;-0.20;76.46
77027;BME280;65956;52.986;17.490;2023-02-28T08:20:56;101970.54;;;-0.13;76.16
77027;BME280;65956;52.986;17.490;2023-02-28T08:23:24;101975.90;;;-0.08;75.50
77027;BME280;65956;52.986;17.490;2023-02-28T08:25:55;101978.08;;;-0.09;74.82
77027;BME280;65956;52.986;17.490;2023-02-28T08:28:23;101976.66;;;-0.03;74.65
77027;BME280;65956;52.986;17.490;2023-02-28T08:30:50;101979.36;;;0.08;75.15
77027;BME280;65956;52.986;17.490;2023-02-28T08:33:17;101980.33;;;0.19;75.08
77027;BME280;65956;52.986;17.490;2023-02-28T08:35:45;101981.98;;;0.25;74.29
77027;BME280;65956;52.986;17.490;2023-02-28T08:38:12;101987.27;;;0.23;74.44
77027;BME280;65956;52.986;17.490;2023-02-28T08:40:39;101986.02;;;0.18;74.33
77027;BME280;65956;52.986;17.490;2023-02-28T08:43:07;101987.23;;;0.19;74.08
77027;BME280;65956;52.986;17.490;2023-02-28T08:45:35;101991.29;;;0.17;73.52
77027;BME280;65956;52.986;17.490;2023-02-28T08:48:02;101993.50;;;0.19;74.02
77027;BME280;65956;52.986;17.490;2023-02-28T08:50:30;101997.73;;;0.20;73.71
77027;BME280;65956;52.986;17.490;2023-02-28T08:53:00;101997.44;;;0.19;73.65
77027;BME280;65956;52.986;17.490;2023-02-28T08:55:27;101996.80;;;0.26;74.19
77027;BME280;65956;52.986;17.490;2023-02-28T08:57:54;102000.45;;;0.41;74.11
77027;BME280;65956;52.986;17.490;2023-02-28T09:00:22;101998.61;;;0.45;73.01
77027;BME280;65956;52.986;17.490;2023-02-28T09:02:50;101998.27;;;0.48;72.92
77027;BME280;65956;52.986;17.490;2023-02-28T09:05:17;101997.52;;;0.60;72.70
77027;BME280;65956;52.986;17.490;2023-02-28T09:07:45;101997.98;;;0.71;72.23
77027;BME280;65956;52.986;17.490;2023-02-28T09:10:12;102000.70;;;0.80;71.26
77027;BME280;65956;52.986;17.490;2023-02-28T09:12:41;101997.38;;;0.81;70.86
77027;BME280;65956;52.986;17.490;2023-02-28T09:15:09;101991.93;;;0.93;71.37
77027;BME280;65956;52.986;17.490;2023-02-28T09:17:37;101991.45;;;1.07;70.77
77027;BME280;65956;52.986;17.490;2023-02-28T09:20:05;101990.83;;;1.14;70.23
77027;BME280;65956;52.986;17.490;2023-02-28T09:22:32;101994.48;;;1.22;70.48
77027;BME280;65956;52.986;17.490;2023-02-28T09:25:00;101995.45;;;1.31;71.66
77027;BME280;65956;52.986;17.490;2023-02-28T09:27:30;101989.59;;;1.36;70.76
77027;BME280;65956;52.986;17.490;2023-02-28T09:29:57;101986.75;;;1.42;70.61
77027;BME280;65956;52.986;17.490;2023-02-28T09:32:24;101983.05;;;1.54;70.49
77027;BME280;65956;52.986;17.490;2023-02-28T09:34:53;101980.27;;;1.66;70.54
77027;BME280;65956;52.986;17.490;2023-02-28T09:37:21;101979.73;;;1.75;70.02
77027;BME280;65956;52.986;17.490;2023-02-28T09:39:53;101979.86;;;1.84;69.29
77027;BME280;65956;52.986;17.490;2023-02-28T09:42:25;101979.30;;;1.90;69.51
77027;BME280;65956;52.986;17.490;2023-02-28T09:44:55;101981.30;;;1.95;69.15
77027;BME280;65956;52.986;17.490;2023-02-28T09:47:34;101981.58;;;2.02;69.04
77027;BME280;65956;52.986;17.490;2023-02-28T09:50:29;101978.45;;;2.11;68.25
77027;BME280;65956;52.986;17.490;2023-02-28T09:53:02;101978.00;;;2.17;67.77
77027;BME280;65956;52.986;17.490;2023-02-28T09:55:42;101981.02;;;2.24;67.70
77027;BME280;65956;52.986;17.490;2023-02-28T10:01:17;101974.58;;;2.35;66.18
77027;BME280;65956;52.986;17.490;2023-02-28T10:03:58;101976.83;;;2.40;65.96
77027;BME280;65956;52.986;17.490;2023-02-28T10:06:35;101976.98;;;2.44;65.75
77027;BME280;65956;52.986;17.490;2023-02-28T10:09:11;101982.14;;;2.49;65.63
77027;BME280;65956;52.986;17.490;2023-02-28T10:11:40;101985.83;;;2.55;65.39
77027;BME280;65956;52.986;17.490;2023-02-28T10:14:21;101983.77;;;2.60;65.47
77027;BME280;65956;52.986;17.490;2023-02-28T10:16:53;101981.89;;;2.65;64.98
77027;BME280;65956;52.986;17.490;2023-02-28T10:19:38;101980.84;;;2.70;64.95
77027;BME280;65956;52.986;17.490;2023-02-28T10:22:14;101982.98;;;2.73;64.69
77027;BME280;65956;52.986;17.490;2023-02-28T10:24:47;101984.20;;;2.72;63.70
77027;BME280;65956;52.986;17.490;2023-02-28T10:29:53;101987.02;;;2.66;63.88
77027;BME280;65956;52.986;17.490;2023-02-28T10:32:25;101981.70;;;2.75;64.32
77027;BME280;65956;52.986;17.490;2023-02-28T10:35:21;101974.37;;;2.82;64.25
77027;BME280;65956;52.986;17.490;2023-02-28T10:37:51;101973.45;;;2.93;64.04
77027;BME280;65956;52.986;17.490;2023-02-28T10:43:02;101971.27;;;3.05;63.79
77027;BME280;65956;52.986;17.490;2023-02-28T10:45:33;101970.58;;;3.12;63.52
77027;BME280;65956;52.986;17.490;2023-02-28T10:48:22;101965.95;;;3.11;62.30
77027;BME280;65956;52.986;17.490;2023-02-28T10:50:54;101961.81;;;3.11;62.72
77027;BME280;65956;52.986;17.490;2023-02-28T11:01:44;101946.59;;;3.16;59.60
77027;BME280;65956;52.986;17.490;2023-02-28T11:07:17;101945.87;;;3.27;61.91
77027;BME280;65956;52.986;17.490;2023-02-28T11:09:48;101947.95;;;3.40;61.09
77027;BME280;65956;52.986;17.490;2023-02-28T11:12:38;101946.17;;;3.40;60.60
77027;BME280;65956;52.986;17.490;2023-02-28T11:15:30;101939.52;;;3.49;61.73
77027;BME280;65956;52.986;17.490;2023-02-28T11:18:29;101936.01;;;3.64;61.41
77027;BME280;65956;52.986;17.490;2023-02-28T11:20:59;101932.77;;;3.82;61.27
77027;BME280;65956;52.986;17.490;2023-02-28T11:23:30;101927.23;;;4.00;60.81
77027;BME280;65956;52.986;17.490;2023-02-28T11:26:02;101934.00;;;4.20;60.91
77027;BME280;65956;52.986;17.490;2023-02-28T13:14:20;101857.77;;;21.49;28.51
77027;BME280;65956;52.986;17.490;2023-02-28T13:19:27;101848.16;;;21.63;28.49
77027;BME280;65956;52.986;17.490;2023-02-28T13:21:57;101846.99;;;21.91;27.16
77027;BME280;65956;52.986;17.490;2023-02-28T13:24:49;101837.55;;;21.62;26.85
77027;BME280;65956;52.986;17.490;2023-02-28T13:27:31;101837.02;;;21.21;27.54
77027;BME280;65956;52.986;17.490;2023-02-28T13:30:39;101834.52;;;20.88;28.13
77027;BME280;65956;52.986;17.490;2023-02-28T13:38:52;101826.54;;;17.34;27.79
77027;BME280;65956;52.986;17.490;2023-02-28T13:41:43;101829.16;;;16.16;28.33
77027;BME280;65956;52.986;17.490;2023-02-28T13:44:22;101830.58;;;14.80;29.06
77027;BME280;65956;52.986;17.490;2023-02-28T13:49:45;101819.02;;;15.98;29.26
77027;BME280;65956;52.986;17.490;2023-02-28T13:52:37;101816.91;;;17.07;27.56
77027;BME280;65956;52.986;17.490;2023-02-28T14:00:56;101807.56;;;17.54;27.67
77027;BME280;65956;52.986;17.490;2023-02-28T14:03:43;101806.90;;;17.76;27.66
77027;BME280;65956;52.986;17.490;2023-02-28T14:06:26;101803.90;;;17.37;27.95
77027;BME280;65956;52.986;17.490;2023-02-28T14:11:39;101802.60;;;15.37;28.25
77027;BME280;65956;52.986;17.490;2023-02-28T14:14:09;101801.69;;;14.44;29.29
77027;BME280;65956;52.986;17.490;2023-02-28T14:16:45;101789.16;;;13.68;29.64
77027;BME280;65956;52.986;17.490;2023-02-28T14:19:24;101786.46;;;13.12;30.70
77027;BME280;65956;52.986;17.490;2023-02-28T14:41:41;101776.41;;;18.37;26.73
77027;BME280;65956;52.986;17.490;2023-02-28T14:44:16;101774.48;;;18.04;25.57
77027;BME280;65956;52.986;17.490;2023-02-28T14:46:48;101780.24;;;17.57;26.08
77027;BME280;65956;52.986;17.490;2023-02-28T14:49:26;101779.52;;;17.34;26.07
77027;BME280;65956;52.986;17.490;2023-02-28T14:52:26;101776.57;;;16.99;26.51
77027;BME280;65956;52.986;17.490;2023-02-28T14:55:04;101775.29;;;17.06;26.56
77027;BME280;65956;52.986;17.490;2023-02-28T14:57:40;101775.69;;;17.17;26.60
77027;BME280;65956;52.986;17.490;2023-02-28T15:02:39;101764.58;;;16.99;26.06
77027;BME280;65956;52.986;17.490;2023-02-28T15:07:46;101767.77;;;17.16;26.15
77027;BME280;65956;52.986;17.490;2023-02-28T15:10:24;101764.60;;;17.37;26.04
77027;BME280;65956;52.986;17.490;2023-02-28T15:12:54;101765.09;;;17.50;26.21
77027;BME280;65956;52.986;17.490;2023-02-28T15:18:25;101766.04;;;17.37;26.36
77027;BME280;65956;52.986;17.490;2023-02-28T15:20:54;101770.30;;;17.24;26.32
77027;BME280;65956;52.986;17.490;2023-02-28T15:23:22;101768.85;;;16.79;26.39
77027;BME280;65956;52.986;17.490;2023-02-28T15:25:51;101765.66;;;16.27;27.29
77027;BME280;65956;52.986;17.490;2023-02-28T15:28:22;101765.55;;;15.82;27.69
77027;BME280;65956;52.986;17.490;2023-02-28T15:30:57;101763.00;;;14.95;28.32
77027;BME280;65956;52.986;17.490;2023-02-28T15:33:30;101762.66;;;14.22;29.27
77027;BME280;65956;52.986;17.490;2023-02-28T15:36:16;101762.80;;;13.05;30.80
77027;BME280;65956;52.986;17.490;2023-02-28T15:38:51;101762.47;;;11.42;32.77
77027;BME280;65956;52.986;17.490;2023-02-28T15:41:30;101766.66;;;10.18;34.17
77027;BME280;65956;52.986;17.490;2023-02-28T15:44:37;101767.58;;;9.29;35.55
77027;BME280;65956;52.986;17.490;2023-02-28T15:52:22;101763.91;;;6.93;39.29
77027;BME280;65956;52.986;17.490;2023-02-28T15:54:51;101760.42;;;6.35;40.76
77027;BME280;65956;52.986;17.490;2023-02-28T15:57:25;101766.75;;;5.80;41.95
77027;BME280;65956;52.986;17.490;2023-02-28T15:59:59;101766.77;;;5.35;42.65
77027;BME280;65956;52.986;17.490;2023-02-28T16:02:35;101764.98;;;4.91;43.64
77027;BME280;65956;52.986;17.490;2023-02-28T16:07:47;101766.31;;;4.06;45.95
77027;BME280;65956;52.986;17.490;2023-02-28T16:10:16;101768.68;;;3.75;46.23
77027;BME280;65956;52.986;17.490;2023-02-28T16:12:45;101771.38;;;3.48;46.99
77027;BME280;65956;52.986;17.490;2023-02-28T16:15:24;101771.91;;;3.24;47.85
77027;BME280;65956;52.986;17.490;2023-02-28T16:17:54;101772.11;;;2.97;48.56
77027;BME280;65956;52.986;17.490;2023-02-28T16:20:26;101767.91;;;2.74;48.89
77027;BME280;65956;52.986;17.490;2023-02-28T16:22:54;101766.55;;;2.53;49.17
77027;BME280;65956;52.986;17.490;2023-02-28T16:25:36;101766.02;;;2.35;49.76
77027;BME280;65956;52.986;17.490;2023-02-28T16:28:12;101769.19;;;2.15;50.33
77027;BME280;65956;52.986;17.490;2023-02-28T16:30:43;101770.63;;;1.96;50.80
77027;BME280;65956;52.986;17.490;2023-02-28T16:33:12;101770.98;;;1.80;51.37
77027;BME280;65956;52.986;17.490;2023-02-28T16:35:40;101772.83;;;1.64;52.14
77027;BME280;65956;52.986;17.490;2023-02-28T16:38:08;101768.46;;;1.48;52.66
77027;BME280;65956;52.986;17.490;2023-02-28T16:40:36;101774.63;;;1.34;52.91